createdAt,value
2017-06-14T00:00:49.905Z,0
2017-06-14T00:01:49.884Z,0
2017-06-14T00:02:49.616Z,0
2017-06-14T00:03:49.839Z,0
2017-06-14T00:04:49.826Z,0
2017-06-14T00:05:49.804Z,0
2017-06-14T00:06:49.778Z,0
2017-06-14T00:07:49.763Z,0
2017-06-14T00:08:49.733Z,0
2017-06-14T00:09:49.727Z,0
2017-06-14T00:10:49.739Z,0
2017-06-14T00:11:49.067Z,0
2017-06-14T00:12:49.656Z,0
2017-06-14T00:13:49.632Z,0
2017-06-14T00:14:49.613Z,0
2017-06-14T00:15:49.644Z,0
2017-06-14T00:16:49.261Z,0
2017-06-14T00:17:49.558Z,0
2017-06-14T00:18:49.530Z,0
2017-06-14T00:19:49.510Z,0
2017-06-14T00:20:49.192Z,0
2017-06-14T00:21:49.461Z,0
2017-06-14T00:22:49.468Z,0
2017-06-14T00:23:49.419Z,0
2017-06-14T00:24:49.399Z,0
2017-06-14T00:25:49.379Z,0
2017-06-14T00:26:49.355Z,0
2017-06-14T00:27:49.381Z,0
2017-06-14T00:28:49.353Z,0
2017-06-14T00:29:49.308Z,0
2017-06-14T00:30:49.266Z,0
2017-06-14T00:31:49.237Z,0
2017-06-14T00:32:48.661Z,0
2017-06-14T00:33:49.204Z,0
2017-06-14T00:34:49.135Z,0
2017-06-14T00:35:49.274Z,0
2017-06-14T00:36:49.188Z,0
2017-06-14T00:37:49.124Z,0
2017-06-14T00:38:49.092Z,0
2017-06-14T00:39:48.771Z,0
2017-06-14T00:40:49.048Z,0
2017-06-14T00:41:49.039Z,0
2017-06-14T00:42:49.110Z,0
2017-06-14T00:43:48.984Z,0
2017-06-14T00:44:48.967Z,0
2017-06-14T00:45:48.953Z,0
2017-06-14T00:46:48.676Z,0
2017-06-14T00:47:48.901Z,0
2017-06-14T00:48:48.880Z,0
2017-06-14T00:49:48.854Z,0
2017-06-14T00:50:48.840Z,0
2017-06-14T00:51:48.821Z,0
2017-06-14T00:52:48.798Z,0
2017-06-14T00:53:48.525Z,0
2017-06-14T00:54:48.761Z,0
2017-06-14T00:55:48.730Z,0
2017-06-14T00:56:48.710Z,0
2017-06-14T00:57:48.693Z,0
2017-06-14T00:58:48.668Z,0
2017-06-14T00:59:48.639Z,0
2017-06-14T01:00:48.624Z,0
2017-06-14T01:01:48.601Z,0
2017-06-14T01:02:48.580Z,0
2017-06-14T01:03:48.256Z,0
2017-06-14T01:04:48.538Z,0
2017-06-14T01:05:48.512Z,0
2017-06-14T01:06:48.498Z,0
2017-06-14T01:07:48.472Z,0
2017-06-14T01:08:48.160Z,0
2017-06-14T01:09:48.524Z,0
2017-06-14T01:10:48.412Z,0
2017-06-14T01:11:48.389Z,0
2017-06-14T01:12:48.367Z,0
2017-06-14T01:13:48.351Z,0
2017-06-14T01:14:48.378Z,0
2017-06-14T01:15:48.305Z,0
2017-06-14T01:16:48.275Z,0
2017-06-14T01:17:48.260Z,0
2017-06-14T01:18:48.292Z,0
2017-06-14T01:19:48.213Z,0
2017-06-14T01:20:48.189Z,0
2017-06-14T01:21:48.269Z,0
2017-06-14T01:22:48.147Z,0
2017-06-14T01:23:48.126Z,0
2017-06-14T01:24:48.151Z,0
2017-06-14T01:25:48.087Z,0
2017-06-14T01:26:48.067Z,0
2017-06-14T01:27:48.044Z,0
2017-06-14T01:28:48.025Z,0
2017-06-14T01:29:48.050Z,0
2017-06-14T01:30:47.979Z,0
2017-06-14T01:31:47.647Z,0
2017-06-14T01:32:47.937Z,0
2017-06-14T01:33:47.914Z,0
2017-06-14T01:34:47.892Z,0
2017-06-14T01:35:47.879Z,0
2017-06-14T01:36:47.855Z,0
2017-06-14T01:37:47.825Z,0
2017-06-14T01:38:47.861Z,0
2017-06-14T01:39:47.782Z,0
2017-06-14T01:40:47.771Z,0
2017-06-14T01:41:48.009Z,0
2017-06-14T01:42:47.413Z,0
2017-06-14T01:43:47.697Z,0
2017-06-14T01:44:47.973Z,0
2017-06-14T01:45:47.651Z,0
2017-06-14T01:46:47.873Z,0
2017-06-14T01:47:47.610Z,0
2017-06-14T01:48:47.590Z,0
2017-06-14T01:49:47.574Z,0
2017-06-14T01:50:47.547Z,0
2017-06-14T01:51:47.542Z,0
2017-06-14T01:52:47.506Z,0
2017-06-14T01:53:47.487Z,0
2017-06-14T01:54:47.461Z,0
2017-06-14T01:55:47.688Z,0
2017-06-14T01:56:47.496Z,0
2017-06-14T01:57:47.388Z,0
2017-06-14T01:58:47.373Z,0
2017-06-14T01:59:47.401Z,0
2017-06-14T02:00:47.335Z,0
2017-06-14T02:01:47.021Z,0
2017-06-14T02:02:47.338Z,0
2017-06-14T02:03:47.262Z,0
2017-06-14T02:04:47.244Z,0
2017-06-14T02:05:47.223Z,0
2017-06-14T02:06:47.194Z,0
2017-06-14T02:07:47.174Z,0
2017-06-14T02:08:47.157Z,0
2017-06-14T02:09:46.852Z,0
2017-06-14T02:10:47.119Z,0
2017-06-14T02:11:47.085Z,0
2017-06-14T02:12:47.074Z,0
2017-06-14T02:13:46.794Z,0
2017-06-14T02:14:47.074Z,0
2017-06-14T02:15:46.752Z,0
2017-06-14T02:16:47.031Z,0
2017-06-14T02:17:46.949Z,0
2017-06-14T02:18:46.630Z,0
2017-06-14T02:19:46.925Z,0
2017-06-14T02:20:46.897Z,0
2017-06-14T02:21:46.871Z,0
2017-06-14T02:22:46.844Z,0
2017-06-14T02:23:46.833Z,0
2017-06-14T02:24:46.816Z,0
2017-06-14T02:25:46.782Z,0
2017-06-14T02:26:46.769Z,0
2017-06-14T02:27:46.739Z,0
2017-06-14T02:28:46.720Z,0
2017-06-14T02:29:46.704Z,0
2017-06-14T02:30:46.680Z,0
2017-06-14T02:31:46.651Z,0
2017-06-14T02:32:46.337Z,0
2017-06-14T02:33:46.314Z,0
2017-06-14T02:34:46.285Z,0
2017-06-14T02:35:46.572Z,0
2017-06-14T02:36:46.249Z,0
2017-06-14T02:37:46.584Z,0
2017-06-14T02:38:46.507Z,0
2017-06-14T02:39:46.530Z,0
2017-06-14T02:40:46.166Z,0
2017-06-14T02:41:46.137Z,0
2017-06-14T02:42:46.722Z,0
2017-06-14T02:43:46.392Z,0
2017-06-14T02:44:46.469Z,0
2017-06-14T02:45:46.344Z,0
2017-06-14T02:46:46.333Z,0
2017-06-14T02:47:46.301Z,0
2017-06-14T02:48:45.985Z,0
2017-06-14T02:49:46.273Z,0
2017-06-14T02:50:46.254Z,0
2017-06-14T02:51:46.207Z,0
2017-06-14T02:52:46.196Z,0
2017-06-14T02:53:46.174Z,0
2017-06-14T02:54:46.160Z,0
2017-06-14T02:55:46.139Z,0
2017-06-14T02:56:46.112Z,5
2017-06-14T02:57:46.089Z,5
2017-06-14T02:58:46.066Z,5
2017-06-14T02:59:46.046Z,5
2017-06-14T03:00:46.326Z,5
2017-06-14T03:01:46.004Z,5
2017-06-14T03:02:45.977Z,5
2017-06-14T03:03:45.964Z,5
2017-06-14T03:04:45.936Z,5
2017-06-14T03:05:45.921Z,5
2017-06-14T03:06:45.882Z,5
2017-06-14T03:07:45.883Z,5
2017-06-14T03:08:45.896Z,10
2017-06-14T03:09:45.821Z,10
2017-06-14T03:10:45.812Z,10
2017-06-14T03:11:45.784Z,10
2017-06-14T03:12:45.763Z,10
2017-06-14T03:13:45.745Z,10
2017-06-14T03:14:45.717Z,10
2017-06-14T03:15:45.687Z,15
2017-06-14T03:16:45.682Z,15
2017-06-14T03:17:45.702Z,15
2017-06-14T03:18:45.635Z,15
2017-06-14T03:19:45.906Z,15
2017-06-14T03:20:45.629Z,20
2017-06-14T03:21:45.564Z,20
2017-06-14T03:22:45.542Z,20
2017-06-14T03:23:45.524Z,20
2017-06-14T03:24:45.544Z,20
2017-06-14T03:25:45.475Z,25
2017-06-14T03:26:45.454Z,25
2017-06-14T03:27:45.430Z,25
2017-06-14T03:28:45.428Z,25
2017-06-14T03:29:45.416Z,30
2017-06-14T03:30:45.373Z,30
2017-06-14T03:31:45.394Z,30
2017-06-14T03:32:45.319Z,35
2017-06-14T03:33:45.360Z,35
2017-06-14T03:34:45.278Z,35
2017-06-14T03:35:45.267Z,40
2017-06-14T03:36:45.242Z,45
2017-06-14T03:37:45.213Z,45
2017-06-14T03:38:45.191Z,45
2017-06-14T03:39:45.218Z,50
2017-06-14T03:40:45.150Z,60
2017-06-14T03:41:45.124Z,60
2017-06-14T03:42:45.105Z,60
2017-06-14T03:43:45.082Z,60
2017-06-14T03:44:45.062Z,60
2017-06-14T03:45:45.037Z,75
2017-06-14T03:46:45.026Z,90
2017-06-14T03:47:45.013Z,105
2017-06-14T03:48:45.033Z,115
2017-06-14T03:49:44.952Z,120
2017-06-14T03:50:44.931Z,130
2017-06-14T03:51:44.908Z,135
2017-06-14T03:52:44.887Z,145
2017-06-14T03:53:44.859Z,150
2017-06-14T03:54:44.743Z,145
2017-06-14T03:55:44.515Z,145
2017-06-14T03:56:44.800Z,155
2017-06-14T03:57:44.780Z,160
2017-06-14T03:58:44.759Z,155
2017-06-14T03:59:44.737Z,155
2017-06-14T04:00:44.710Z,160
2017-06-14T04:01:44.689Z,160
2017-06-14T04:02:44.722Z,155
2017-06-14T04:03:44.655Z,165
2017-06-14T04:04:44.622Z,180
2017-06-14T04:05:44.650Z,180
2017-06-14T04:06:44.800Z,170
2017-06-14T04:07:44.566Z,160
2017-06-14T04:08:44.613Z,140
2017-06-14T04:09:44.520Z,140
2017-06-14T04:10:44.499Z,145
2017-06-14T04:11:44.488Z,155
2017-06-14T04:12:44.463Z,165
2017-06-14T04:13:44.430Z,160
2017-06-14T04:14:44.418Z,165
2017-06-14T04:15:44.395Z,175
2017-06-14T04:16:44.368Z,175
2017-06-14T04:17:44.358Z,200
2017-06-14T04:18:44.329Z,210
2017-06-14T04:19:44.314Z,240
2017-06-14T04:20:44.296Z,255
2017-06-14T04:21:44.281Z,255
2017-06-14T04:22:44.308Z,240
2017-06-14T04:23:44.229Z,235
2017-06-14T04:24:44.221Z,220
2017-06-14T04:25:44.200Z,270
2017-06-14T04:26:44.173Z,265
2017-06-14T04:27:44.150Z,265
2017-06-14T04:28:44.122Z,270
2017-06-14T04:29:44.110Z,285
2017-06-14T04:30:44.083Z,285
2017-06-14T04:31:43.759Z,305
2017-06-14T04:32:44.050Z,315
2017-06-14T04:33:44.027Z,320
2017-06-14T04:34:44.007Z,325
2017-06-14T04:35:43.989Z,330
2017-06-14T04:36:43.965Z,325
2017-06-14T04:37:43.947Z,325
2017-06-14T04:38:43.937Z,340
2017-06-14T04:39:43.904Z,350
2017-06-14T04:40:43.884Z,350
2017-06-14T04:41:43.879Z,355
2017-06-14T04:42:43.840Z,360
2017-06-14T04:43:43.828Z,355
2017-06-14T04:44:43.802Z,350
2017-06-14T04:45:43.791Z,360
2017-06-14T04:46:43.767Z,370
2017-06-14T04:47:43.750Z,375
2017-06-14T04:48:43.728Z,380
2017-06-14T04:49:43.718Z,390
2017-06-14T04:50:43.400Z,395
2017-06-14T04:51:43.735Z,395
2017-06-14T04:52:43.659Z,400
2017-06-14T04:53:43.040Z,405
2017-06-14T04:54:43.621Z,410
2017-06-14T04:55:43.598Z,425
2017-06-14T04:56:43.336Z,425
2017-06-14T04:57:43.569Z,430
2017-06-14T04:58:43.240Z,435
2017-06-14T04:59:43.528Z,440
2017-06-14T05:00:43.503Z,445
2017-06-14T05:01:43.537Z,450
2017-06-14T05:02:42.874Z,455
2017-06-14T05:03:43.444Z,465
2017-06-14T05:04:43.483Z,470
2017-06-14T05:05:43.413Z,480
2017-06-14T05:06:43.418Z,485
2017-06-14T05:07:43.379Z,490
2017-06-14T05:08:43.364Z,500
2017-06-14T05:09:43.347Z,500
2017-06-14T05:10:43.322Z,510
2017-06-14T05:11:43.320Z,510
2017-06-14T05:12:43.339Z,515
2017-06-14T05:13:43.270Z,520
2017-06-14T05:14:43.254Z,530
2017-06-14T05:15:43.237Z,535
2017-06-14T05:16:43.272Z,540
2017-06-14T05:17:43.199Z,540
2017-06-14T05:18:42.888Z,540
2017-06-14T05:19:43.214Z,545
2017-06-14T05:20:43.151Z,545
2017-06-14T05:21:43.149Z,550
2017-06-14T05:22:43.109Z,560
2017-06-14T05:23:43.100Z,555
2017-06-14T05:24:43.126Z,560
2017-06-14T05:25:43.079Z,560
2017-06-14T05:26:43.043Z,560
2017-06-14T05:27:42.731Z,565
2017-06-14T05:28:43.018Z,570
2017-06-14T05:29:42.999Z,585
2017-06-14T05:30:42.683Z,600
2017-06-14T05:31:42.968Z,605
2017-06-14T05:32:42.970Z,615
2017-06-14T05:33:42.930Z,625
2017-06-14T05:34:42.964Z,640
2017-06-14T05:35:42.922Z,655
2017-06-14T05:36:42.940Z,660
2017-06-14T05:37:42.873Z,675
2017-06-14T05:38:42.852Z,690
2017-06-14T05:39:42.844Z,690
2017-06-14T05:40:42.880Z,695
2017-06-14T05:41:42.804Z,695
2017-06-14T05:42:42.493Z,700
2017-06-14T05:43:41.897Z,710
2017-06-14T05:44:41.578Z,715
2017-06-14T05:45:41.865Z,730
2017-06-14T05:46:42.737Z,740
2017-06-14T05:47:42.777Z,750
2017-06-14T05:48:42.097Z,760
2017-06-14T05:49:42.690Z,770
2017-06-14T05:50:42.383Z,775
2017-06-14T05:51:42.664Z,780
2017-06-14T05:52:42.647Z,780
2017-06-14T05:53:42.639Z,790
2017-06-14T05:54:42.605Z,790
2017-06-14T05:55:42.593Z,800
2017-06-14T05:56:42.580Z,815
2017-06-14T05:57:42.567Z,825
2017-06-14T05:58:42.551Z,825
2017-06-14T05:59:42.547Z,830
2017-06-14T06:00:42.527Z,835
2017-06-14T06:01:42.564Z,845
2017-06-14T06:02:42.547Z,850
2017-06-14T06:03:42.183Z,840
2017-06-14T06:04:42.470Z,845
2017-06-14T06:05:42.456Z,850
2017-06-14T06:06:42.445Z,865
2017-06-14T06:07:42.425Z,875
2017-06-14T06:08:42.418Z,890
2017-06-14T06:09:42.396Z,900
2017-06-14T06:10:42.384Z,920
2017-06-14T06:11:42.371Z,940
2017-06-14T06:12:42.354Z,950
2017-06-14T06:13:42.343Z,965
2017-06-14T06:14:42.322Z,970
2017-06-14T06:15:42.318Z,985
2017-06-14T06:16:42.302Z,1005
2017-06-14T06:17:42.290Z,1000
2017-06-14T06:18:42.281Z,1015
2017-06-14T06:19:42.268Z,1020
2017-06-14T06:20:42.307Z,1040
2017-06-14T06:21:42.248Z,1040
2017-06-14T06:22:41.949Z,1050
2017-06-14T06:23:42.263Z,1060
2017-06-14T06:24:42.199Z,1045
2017-06-14T06:25:41.884Z,1045
2017-06-14T06:26:42.176Z,1050
2017-06-14T06:27:41.858Z,1055
2017-06-14T06:28:42.157Z,1065
2017-06-14T06:29:42.133Z,1090
2017-06-14T06:30:42.109Z,1100
2017-06-14T06:31:42.109Z,1095
2017-06-14T06:32:42.197Z,1100
2017-06-14T06:33:42.078Z,1110
2017-06-14T06:34:42.080Z,1115
2017-06-14T06:35:42.056Z,1120
2017-06-14T06:36:42.047Z,1115
2017-06-14T06:37:42.026Z,1130
2017-06-14T06:38:42.017Z,1150
2017-06-14T06:39:42.005Z,1150
2017-06-14T06:40:42.039Z,1160
2017-06-14T06:41:41.983Z,1165
2017-06-14T06:42:41.976Z,1150
2017-06-14T06:43:41.960Z,1160
2017-06-14T06:44:41.957Z,1170
2017-06-14T06:45:41.698Z,1165
2017-06-14T06:46:41.627Z,1185
2017-06-14T06:47:41.612Z,1195
2017-06-14T06:48:41.599Z,1160
2017-06-14T06:49:41.888Z,1180
2017-06-14T06:50:41.929Z,1180
2017-06-14T06:51:41.881Z,1195
2017-06-14T06:52:41.865Z,1215
2017-06-14T06:53:41.855Z,1220
2017-06-14T06:54:41.881Z,1235
2017-06-14T06:55:41.821Z,1250
2017-06-14T06:56:41.809Z,1260
2017-06-14T06:57:41.853Z,1255
2017-06-14T06:58:41.783Z,1265
2017-06-14T06:59:56.690Z,1285
2017-06-14T07:00:41.771Z,1305
2017-06-14T07:01:41.779Z,1305
2017-06-14T07:02:41.442Z,1325
2017-06-14T07:03:41.732Z,1350
2017-06-14T07:04:41.915Z,1365
2017-06-14T07:05:41.712Z,1300
2017-06-14T07:06:41.753Z,1115
2017-06-14T07:07:41.740Z,1230
2017-06-14T07:08:41.675Z,1270
2017-06-14T07:09:41.667Z,1340
2017-06-14T07:10:41.646Z,1410
2017-06-14T07:11:41.630Z,1310
2017-06-14T07:12:41.679Z,1265
2017-06-14T07:13:41.617Z,1255
2017-06-14T07:14:41.621Z,1320
2017-06-14T07:15:41.597Z,1345
2017-06-14T07:16:41.585Z,1340
2017-06-14T07:17:41.879Z,1280
2017-06-14T07:18:41.870Z,1475
2017-06-14T07:19:41.600Z,1475
2017-06-14T07:20:41.847Z,1455
2017-06-14T07:21:41.539Z,1105
2017-06-14T07:22:41.576Z,1235
2017-06-14T07:23:41.520Z,1280
2017-06-14T07:24:41.503Z,1200
2017-06-14T07:25:41.800Z,1275
2017-06-14T07:26:41.471Z,1365
2017-06-14T07:27:41.479Z,1460
2017-06-14T07:28:41.527Z,1535
2017-06-14T07:29:41.446Z,1540
2017-06-14T07:30:41.487Z,1565
2017-06-14T07:31:41.426Z,1560
2017-06-14T07:32:41.418Z,1555
2017-06-14T07:33:41.404Z,1555
2017-06-14T07:34:41.445Z,1550
2017-06-14T07:35:41.687Z,1560
2017-06-14T07:36:41.385Z,1565
2017-06-14T07:37:41.359Z,1570
2017-06-14T07:38:41.054Z,1580
2017-06-14T07:39:41.342Z,1565
2017-06-14T07:40:41.045Z,1110
2017-06-14T07:41:41.334Z,1375
2017-06-14T07:42:41.617Z,1395
2017-06-14T07:43:41.312Z,1365
2017-06-14T07:44:41.306Z,1320
2017-06-14T07:45:41.287Z,1300
2017-06-14T07:46:41.288Z,1310
2017-06-14T07:47:41.279Z,1345
2017-06-14T07:48:41.328Z,1400
2017-06-14T07:49:41.262Z,1480
2017-06-14T07:50:41.240Z,1545
2017-06-14T07:51:41.240Z,1600
2017-06-14T07:52:41.230Z,1635
2017-06-14T07:53:41.236Z,1660
2017-06-14T07:54:41.246Z,1670
2017-06-14T07:55:41.208Z,1680
2017-06-14T07:56:41.224Z,1695
2017-06-14T07:57:41.183Z,1700
2017-06-14T07:58:41.175Z,1710
2017-06-14T07:59:41.162Z,1740
2017-06-14T08:00:41.465Z,1765
2017-06-14T08:01:41.154Z,1780
2017-06-14T08:02:41.204Z,1790
2017-06-14T08:03:41.147Z,1770
2017-06-14T08:04:41.180Z,1795
2017-06-14T08:05:40.822Z,1790
2017-06-14T08:06:40.811Z,1790
2017-06-14T08:07:41.106Z,1790
2017-06-14T08:08:41.093Z,1790
2017-06-14T08:09:41.087Z,1785
2017-06-14T08:10:41.103Z,1785
2017-06-14T08:11:41.076Z,1775
2017-06-14T08:12:41.057Z,1765
2017-06-14T08:13:41.107Z,1775
2017-06-14T08:14:41.053Z,1775
2017-06-14T08:15:41.101Z,1785
2017-06-14T08:16:40.789Z,1770
2017-06-14T08:17:55.681Z,1770
2017-06-14T08:18:41.021Z,1760
2017-06-14T08:19:41.019Z,1735
2017-06-14T08:20:41.013Z,1675
2017-06-14T08:21:41.057Z,1740
2017-06-14T08:22:40.687Z,1805
2017-06-14T08:23:40.701Z,1825
2017-06-14T08:24:40.978Z,1835
2017-06-14T08:25:40.971Z,1855
2017-06-14T08:26:40.950Z,1860
2017-06-14T08:27:40.948Z,1865
2017-06-14T08:28:40.949Z,1860
2017-06-14T08:29:40.391Z,1865
2017-06-14T08:30:40.989Z,1880
2017-06-14T08:31:40.924Z,1870
2017-06-14T08:32:40.910Z,1875
2017-06-14T08:33:40.913Z,1870
2017-06-14T08:34:40.905Z,1900
2017-06-14T08:35:40.900Z,1915
2017-06-14T08:36:40.907Z,2010
2017-06-14T08:37:40.889Z,2100
2017-06-14T08:38:40.587Z,2145
2017-06-14T08:39:40.864Z,2175
2017-06-14T08:40:40.848Z,2200
2017-06-14T08:41:40.856Z,2215
2017-06-14T08:42:40.544Z,2230
2017-06-14T08:43:40.886Z,2215
2017-06-14T08:44:40.852Z,2170
2017-06-14T08:45:40.869Z,2065
2017-06-14T08:46:40.806Z,1955
2017-06-14T08:47:40.808Z,1945
2017-06-14T08:48:40.788Z,1970
2017-06-14T08:49:40.909Z,1995
2017-06-14T08:50:40.802Z,2010
2017-06-14T08:51:40.776Z,2035
2017-06-14T08:52:40.780Z,2035
2017-06-14T08:53:40.486Z,2030
2017-06-14T08:54:40.849Z,2010
2017-06-14T08:55:40.740Z,1995
2017-06-14T08:56:40.742Z,1975
2017-06-14T08:57:40.736Z,1960
2017-06-14T08:58:40.428Z,1935
2017-06-14T08:59:40.772Z,1925
2017-06-14T09:00:40.708Z,1965
2017-06-14T09:01:40.465Z,2000
2017-06-14T09:02:40.700Z,2025
2017-06-14T09:03:40.696Z,2035
2017-06-14T09:04:40.084Z,2030
2017-06-14T09:05:40.678Z,2040
2017-06-14T09:06:40.677Z,2035
2017-06-14T09:07:40.713Z,2010
2017-06-14T09:08:40.972Z,1975
2017-06-14T09:09:40.662Z,1945
2017-06-14T09:10:40.669Z,1910
2017-06-14T09:11:40.694Z,1900
2017-06-14T09:12:40.662Z,1910
2017-06-14T09:13:40.642Z,1915
2017-06-14T09:14:40.723Z,1910
2017-06-14T09:15:40.623Z,1935
2017-06-14T09:16:40.619Z,1970
2017-06-14T09:17:40.619Z,1990
2017-06-14T09:18:40.598Z,1995
2017-06-14T09:19:40.618Z,2010
2017-06-14T09:20:40.603Z,2015
2017-06-14T09:21:40.327Z,2030
2017-06-14T09:22:40.626Z,2060
2017-06-14T09:23:40.262Z,2075
2017-06-14T09:24:40.559Z,2090
2017-06-14T09:25:40.545Z,2125
2017-06-14T09:26:40.549Z,2165
2017-06-14T09:27:40.548Z,2200
2017-06-14T09:28:40.544Z,2205
2017-06-14T09:29:40.527Z,2215
2017-06-14T09:30:40.554Z,2225
2017-06-14T09:31:40.520Z,2220
2017-06-14T09:32:40.555Z,2205
2017-06-14T09:33:40.194Z,2210
2017-06-14T09:34:39.887Z,2220
2017-06-14T09:35:40.483Z,2245
2017-06-14T09:36:40.481Z,2250
2017-06-14T09:37:40.479Z,2265
2017-06-14T09:38:40.464Z,2285
2017-06-14T09:39:40.463Z,2310
2017-06-14T09:40:40.465Z,2320
2017-06-14T09:41:40.495Z,2330
2017-06-14T09:42:40.439Z,2315
2017-06-14T09:43:40.476Z,2320
2017-06-14T09:44:40.475Z,2320
2017-06-14T09:45:40.430Z,2315
2017-06-14T09:46:40.400Z,2305
2017-06-14T09:47:40.458Z,2285
2017-06-14T09:48:40.612Z,2270
2017-06-14T09:49:40.482Z,2240
2017-06-14T09:50:40.387Z,2245
2017-06-14T09:51:40.396Z,2245
2017-06-14T09:52:40.369Z,2240
2017-06-14T09:53:40.357Z,2260
2017-06-14T09:54:40.350Z,2265
2017-06-14T09:55:40.045Z,2275
2017-06-14T09:56:40.636Z,2300
2017-06-14T09:57:40.353Z,2320
2017-06-14T09:58:40.323Z,2325
2017-06-14T09:59:40.308Z,2335
2017-06-14T10:00:40.421Z,2335
2017-06-14T10:01:40.346Z,2295
2017-06-14T10:02:40.299Z,2265
2017-06-14T10:03:40.279Z,2245
2017-06-14T10:04:40.278Z,2200
2017-06-14T10:05:40.269Z,2125
2017-06-14T10:06:40.269Z,2085
2017-06-14T10:07:40.266Z,2035
2017-06-14T10:08:40.284Z,2010
2017-06-14T10:09:40.248Z,2015
2017-06-14T10:10:40.237Z,2015
2017-06-14T10:11:40.231Z,2015
2017-06-14T10:12:40.228Z,2055
2017-06-14T10:13:40.205Z,2140
2017-06-14T10:14:40.206Z,2210
2017-06-14T10:15:40.195Z,2255
2017-06-14T10:16:40.192Z,2140
2017-06-14T10:17:39.876Z,2350
2017-06-14T10:18:40.209Z,2385
2017-06-14T10:19:40.166Z,2395
2017-06-14T10:20:39.869Z,2365
2017-06-14T10:21:40.162Z,2320
2017-06-14T10:22:40.207Z,2340
2017-06-14T10:23:40.136Z,2305
2017-06-14T10:24:40.130Z,2300
2017-06-14T10:25:40.127Z,2290
2017-06-14T10:26:40.118Z,2235
2017-06-14T10:27:40.157Z,2280
2017-06-14T10:28:40.156Z,2345
2017-06-14T10:29:40.112Z,2370
2017-06-14T10:30:40.140Z,2400
2017-06-14T10:31:40.131Z,2400
2017-06-14T10:32:39.769Z,2355
2017-06-14T10:33:40.067Z,2330
2017-06-14T10:34:40.089Z,2340
2017-06-14T10:35:40.052Z,2330
2017-06-14T10:36:40.071Z,2320
2017-06-14T10:37:40.040Z,2325
2017-06-14T10:38:39.730Z,2305
2017-06-14T10:39:39.840Z,2345
2017-06-14T10:40:40.026Z,2330
2017-06-14T10:41:40.147Z,2285
2017-06-14T10:42:40.006Z,2280
2017-06-14T10:43:39.993Z,2265
2017-06-14T10:44:39.998Z,2310
2017-06-14T10:45:40.006Z,2320
2017-06-14T10:46:39.987Z,2320
2017-06-14T10:47:39.985Z,2330
2017-06-14T10:48:39.442Z,2370
2017-06-14T10:49:39.952Z,2375
2017-06-14T10:50:39.994Z,2385
2017-06-14T10:51:40.093Z,2435
2017-06-14T10:52:39.640Z,2395
2017-06-14T10:53:39.627Z,2425
2017-06-14T10:54:39.317Z,2485
2017-06-14T10:55:39.922Z,2515
2017-06-14T10:56:39.609Z,2520
2017-06-14T10:57:39.892Z,2450
2017-06-14T10:58:39.888Z,2370
2017-06-14T10:59:39.887Z,2295
2017-06-14T11:00:39.877Z,2190
2017-06-14T11:01:39.868Z,2160
2017-06-14T11:02:40.016Z,1935
2017-06-14T11:03:39.854Z,1260
2017-06-14T11:04:39.855Z,485
2017-06-14T11:05:39.843Z,285
2017-06-14T11:06:39.834Z,285
2017-06-14T11:07:39.828Z,685
2017-06-14T11:08:39.842Z,1625
2017-06-14T11:09:39.809Z,2265
2017-06-14T11:10:39.800Z,2335
2017-06-14T11:11:39.787Z,2220
2017-06-14T11:12:39.494Z,1970
2017-06-14T11:13:39.762Z,1660
2017-06-14T11:14:39.757Z,1650
2017-06-14T11:15:39.749Z,1780
2017-06-14T11:16:39.790Z,1735
2017-06-14T11:17:39.789Z,925
2017-06-14T11:18:39.419Z,320
2017-06-14T11:19:39.713Z,265
2017-06-14T11:20:39.703Z,260
2017-06-14T11:21:39.691Z,250
2017-06-14T11:22:39.716Z,245
2017-06-14T11:23:39.662Z,245
2017-06-14T11:24:39.643Z,240
2017-06-14T11:25:39.684Z,235
2017-06-14T11:26:39.677Z,235
2017-06-14T11:27:39.666Z,235
2017-06-14T11:28:39.596Z,235
2017-06-14T11:29:39.285Z,230
2017-06-14T11:30:39.267Z,235
2017-06-14T11:31:39.550Z,235
2017-06-14T11:32:39.595Z,230
2017-06-14T11:33:39.522Z,225
2017-06-14T11:34:39.521Z,220
2017-06-14T11:35:39.495Z,215
2017-06-14T11:36:39.488Z,215
2017-06-14T11:37:39.462Z,210
2017-06-14T11:38:39.456Z,210
2017-06-14T11:39:39.422Z,205
2017-06-14T11:40:39.423Z,205
2017-06-14T11:41:39.403Z,200
2017-06-14T11:42:39.382Z,200
2017-06-14T11:43:39.368Z,200
2017-06-14T11:44:39.416Z,200
2017-06-14T11:45:39.388Z,200
2017-06-14T11:46:39.035Z,200
2017-06-14T11:47:39.014Z,200
2017-06-14T11:48:39.006Z,205
2017-06-14T11:49:39.295Z,205
2017-06-14T11:50:39.327Z,205
2017-06-14T11:51:39.263Z,205
2017-06-14T11:52:39.287Z,205
2017-06-14T11:53:39.246Z,205
2017-06-14T11:54:38.919Z,205
2017-06-14T11:55:39.202Z,205
2017-06-14T11:56:39.171Z,210
2017-06-14T11:57:38.841Z,205
2017-06-14T11:58:39.169Z,205
2017-06-14T11:59:39.126Z,210
2017-06-14T12:00:39.108Z,210
2017-06-14T12:01:38.537Z,205
2017-06-14T12:02:38.773Z,205
2017-06-14T12:03:38.782Z,205
2017-06-14T12:04:39.044Z,205
2017-06-14T12:05:39.063Z,200
2017-06-14T12:06:38.697Z,200
2017-06-14T12:07:38.991Z,200
2017-06-14T12:08:38.956Z,195
2017-06-14T12:09:38.339Z,195
2017-06-14T12:10:38.941Z,195
2017-06-14T12:11:39.030Z,195
2017-06-14T12:12:38.591Z,195
2017-06-14T12:13:38.879Z,195
2017-06-14T12:14:38.863Z,195
2017-06-14T12:15:38.576Z,190
2017-06-14T12:16:38.864Z,190
2017-06-14T12:17:38.804Z,190
2017-06-14T12:18:38.834Z,190
2017-06-14T12:19:38.763Z,190
2017-06-14T12:20:38.804Z,190
2017-06-14T12:21:38.736Z,190
2017-06-14T12:22:38.709Z,190
2017-06-14T12:23:38.721Z,190
2017-06-14T12:24:38.377Z,190
2017-06-14T12:25:38.659Z,190
2017-06-14T12:26:38.649Z,190
2017-06-14T12:27:38.646Z,185
2017-06-14T12:28:38.614Z,185
2017-06-14T12:29:38.289Z,185
2017-06-14T12:30:38.282Z,180
2017-06-14T12:31:38.251Z,180
2017-06-14T12:32:38.535Z,180
2017-06-14T12:33:37.925Z,180
2017-06-14T12:34:38.216Z,175
2017-06-14T12:35:38.488Z,175
2017-06-14T12:36:38.485Z,170
2017-06-14T12:37:38.451Z,165
2017-06-14T12:38:38.135Z,165
2017-06-14T12:39:38.360Z,165
2017-06-14T12:40:38.395Z,165
2017-06-14T12:41:38.083Z,165
2017-06-14T12:42:38.369Z,165
2017-06-14T12:43:38.401Z,165
2017-06-14T12:44:38.337Z,165
2017-06-14T12:45:38.310Z,165
2017-06-14T12:46:38.300Z,170
2017-06-14T12:47:38.286Z,170
2017-06-14T12:48:38.010Z,170
2017-06-14T12:49:38.245Z,175
2017-06-14T12:50:38.442Z,180
2017-06-14T12:51:38.405Z,180
2017-06-14T12:52:38.198Z,180
2017-06-14T12:53:38.173Z,185
2017-06-14T12:54:38.161Z,185
2017-06-14T12:55:38.157Z,180
2017-06-14T12:56:38.145Z,180
2017-06-14T12:57:38.110Z,185
2017-06-14T12:58:38.104Z,180
2017-06-14T12:59:37.830Z,180
2017-06-14T13:00:38.074Z,180
2017-06-14T13:01:38.039Z,180
2017-06-14T13:02:37.714Z,180
2017-06-14T13:03:38.015Z,180
2017-06-14T13:04:37.984Z,180
2017-06-14T13:05:38.013Z,180
2017-06-14T13:06:37.955Z,180
2017-06-14T13:07:37.638Z,180
2017-06-14T13:08:37.965Z,180
2017-06-14T13:09:37.590Z,175
2017-06-14T13:10:37.877Z,180
2017-06-14T13:11:37.880Z,175
2017-06-14T13:12:37.844Z,180
2017-06-14T13:13:37.826Z,180
2017-06-14T13:14:37.856Z,180
2017-06-14T13:15:37.793Z,185
2017-06-14T13:16:37.791Z,185
2017-06-14T13:17:37.754Z,185
2017-06-14T13:18:38.037Z,185
2017-06-14T13:19:37.770Z,185
2017-06-14T13:20:37.413Z,185
2017-06-14T13:21:37.695Z,185
2017-06-14T13:22:37.370Z,185
2017-06-14T13:23:37.665Z,185
2017-06-14T13:24:37.634Z,185
2017-06-14T13:25:37.369Z,180
2017-06-14T13:26:37.650Z,180
2017-06-14T13:27:37.588Z,180
2017-06-14T13:28:37.278Z,180
2017-06-14T13:29:37.295Z,175
2017-06-14T13:30:37.279Z,175
2017-06-14T13:31:37.520Z,175
2017-06-14T13:32:37.546Z,170
2017-06-14T13:33:37.495Z,170
2017-06-14T13:34:37.465Z,170
2017-06-14T13:35:37.446Z,165
2017-06-14T13:36:37.431Z,165
2017-06-14T13:37:37.115Z,160
2017-06-14T13:38:37.408Z,160
2017-06-14T13:39:37.073Z,160
2017-06-14T13:40:37.359Z,160
2017-06-14T13:41:37.389Z,155
2017-06-14T13:42:37.031Z,155
2017-06-14T13:43:37.363Z,155
2017-06-14T13:44:36.997Z,155
2017-06-14T13:45:37.265Z,150
2017-06-14T13:46:37.558Z,150
2017-06-14T13:47:37.284Z,145
2017-06-14T13:48:37.215Z,145
2017-06-14T13:49:37.210Z,145
2017-06-14T13:50:37.196Z,140